createdAt,value
2023-04-24T00:00:42.823Z,2.08
2023-04-24T00:03:12.206Z,2.30
2023-04-24T00:05:42.421Z,1.98
2023-04-24T00:08:12.133Z,1.85
2023-04-24T00:10:40.603Z,1.80
2023-04-24T00:13:08.883Z,1.80
2023-04-24T00:15:37.203Z,1.80
2023-04-24T00:18:05.929Z,1.63
2023-04-24T00:20:34.524Z,2.08
2023-04-24T00:23:03.085Z,1.70
2023-04-24T00:25:32.723Z,2.00
2023-04-24T00:28:01.031Z,1.98
2023-04-24T00:30:29.699Z,2.85
2023-04-24T00:32:58.235Z,2.85
2023-04-24T00:35:26.781Z,2.63
2023-04-24T00:37:55.062Z,3.08
2023-04-24T00:40:23.546Z,4.78
2023-04-24T00:42:53.334Z,4.90
2023-04-24T00:45:22.341Z,5.22
2023-04-24T00:47:51.433Z,4.28
2023-04-24T00:50:20.473Z,5.40
2023-04-24T00:52:51.900Z,4.88
2023-04-24T00:55:20.840Z,4.90
2023-04-24T00:57:49.515Z,4.88
2023-04-24T01:00:19.845Z,5.40
2023-04-24T01:02:49.094Z,4.72
2023-04-24T01:05:18.362Z,4.68
2023-04-24T01:07:50.114Z,4.93
2023-04-24T01:10:19.266Z,4.43
2023-04-24T01:12:48.072Z,3.00
2023-04-24T01:15:17.892Z,2.88
2023-04-24T01:17:48.893Z,3.10
2023-04-24T01:20:17.684Z,3.60
2023-04-24T01:22:50.202Z,3.67
2023-04-24T01:25:18.586Z,3.65
2023-04-24T01:27:47.312Z,4.18
2023-04-24T01:30:16.697Z,5.00
2023-04-24T01:32:46.948Z,4.80
2023-04-24T01:35:15.479Z,5.35
2023-04-24T01:37:44.004Z,5.70
2023-04-24T01:40:14.025Z,6.10
2023-04-24T01:42:44.017Z,6.95
2023-04-24T01:45:14.784Z,6.80
2023-04-24T01:47:43.276Z,8.18
2023-04-24T01:50:12.393Z,8.45
2023-04-24T01:52:41.363Z,7.22
2023-04-24T01:55:11.193Z,7.72
2023-04-24T01:57:41.250Z,8.30
2023-04-24T02:00:12.263Z,8.82
2023-04-24T02:02:44.316Z,8.65
2023-04-24T02:05:14.051Z,8.98
2023-04-24T02:07:42.485Z,9.82
2023-04-24T02:10:12.093Z,9.48
2023-04-24T02:12:41.904Z,11.13
2023-04-24T02:15:11.446Z,11.02
2023-04-24T02:17:39.817Z,11.02
2023-04-24T02:20:09.783Z,12.02
2023-04-24T02:22:38.034Z,10.95
2023-04-24T02:25:07.743Z,10.20
2023-04-24T02:27:36.061Z,10.13
2023-04-24T02:30:07.310Z,10.20
2023-04-24T02:32:36.050Z,10.05
2023-04-24T02:35:04.401Z,10.68
2023-04-24T02:37:32.706Z,10.65
2023-04-24T02:40:01.125Z,10.38
2023-04-24T02:42:29.520Z,8.90
2023-04-24T02:44:57.833Z,8.38
2023-04-24T02:47:27.624Z,7.85
2023-04-24T02:49:56.028Z,8.25
2023-04-24T02:52:24.349Z,8.35
2023-04-24T02:54:52.663Z,7.13
2023-04-24T02:57:20.953Z,6.63
2023-04-24T02:59:49.488Z,6.88
2023-04-24T03:02:17.914Z,7.35
2023-04-24T03:04:50.544Z,6.55
2023-04-24T03:07:21.804Z,6.78
2023-04-24T03:09:50.242Z,7.47
2023-04-24T03:12:18.957Z,6.75
2023-04-24T03:14:49.768Z,5.80
2023-04-24T03:17:18.062Z,5.30
2023-04-24T03:19:47.909Z,4.05
2023-04-24T03:22:16.251Z,4.72
2023-04-24T03:24:44.561Z,3.60
2023-04-24T03:27:12.872Z,3.72
2023-04-24T03:29:41.466Z,3.42
2023-04-24T03:32:09.937Z,3.45
2023-04-24T03:34:38.188Z,3.65
2023-04-24T03:37:07.787Z,3.50
2023-04-24T03:39:36.097Z,4.13
2023-04-24T03:42:04.643Z,4.30
2023-04-24T03:44:32.941Z,4.25
2023-04-24T03:47:01.205Z,4.22
2023-04-24T03:49:29.559Z,4.57
2023-04-24T03:51:57.837Z,4.88
2023-04-24T03:54:27.500Z,3.72
2023-04-24T03:56:56.090Z,3.38
2023-04-24T03:59:24.397Z,2.92
2023-04-24T04:01:52.770Z,2.33
2023-04-24T04:04:21.215Z,2.38
2023-04-24T04:06:50.060Z,2.40
2023-04-24T04:09:18.378Z,2.35
2023-04-24T04:11:51.102Z,2.40
2023-04-24T04:14:19.367Z,2.55
2023-04-24T04:16:47.941Z,2.53
2023-04-24T04:19:16.375Z,2.80
2023-04-24T04:21:46.635Z,3.28
2023-04-24T04:24:14.949Z,4.50
2023-04-24T04:26:47.525Z,5.10
2023-04-24T04:29:18.721Z,5.60
2023-04-24T04:31:47.769Z,5.75
2023-04-24T04:34:16.231Z,6.15
2023-04-24T04:36:47.052Z,6.40
2023-04-24T04:39:20.436Z,5.90
2023-04-24T04:41:49.925Z,4.65
2023-04-24T04:44:20.791Z,5.30
2023-04-24T04:46:49.386Z,5.40
2023-04-24T04:49:17.966Z,5.25
2023-04-24T04:51:49.333Z,5.05
2023-04-24T04:54:17.573Z,5.30
2023-04-24T04:56:45.884Z,4.88
2023-04-24T04:59:14.498Z,4.93
2023-04-24T05:01:44.301Z,4.85
2023-04-24T05:04:12.997Z,3.75
2023-04-24T05:06:41.677Z,3.35
2023-04-24T05:09:10.741Z,2.50
2023-04-24T05:11:39.037Z,2.88
2023-04-24T05:14:14.012Z,2.70
2023-04-24T05:16:43.964Z,2.60
2023-04-24T05:19:12.907Z,2.80
2023-04-24T05:21:41.521Z,2.58
2023-04-24T05:24:10.091Z,3.30
2023-04-24T05:26:39.680Z,4.43
2023-04-24T05:29:08.305Z,6.35
2023-04-24T05:31:36.586Z,7.38
2023-04-24T05:34:06.650Z,7.50
2023-04-24T05:36:34.955Z,9.20
2023-04-24T05:39:08.164Z,9.25
2023-04-24T05:41:36.991Z,8.82
2023-04-24T05:44:05.413Z,9.73
2023-04-24T05:46:33.783Z,10.07
2023-04-24T05:49:02.338Z,8.52
2023-04-24T05:51:32.683Z,9.60
2023-04-24T05:54:01.453Z,9.65
2023-04-24T05:56:30.140Z,11.45
2023-04-24T05:58:58.383Z,12.25
2023-04-24T06:01:27.288Z,13.23
2023-04-24T06:03:55.760Z,12.30
2023-04-24T06:06:24.219Z,13.55
2023-04-24T06:08:54.255Z,13.73
2023-04-24T06:11:23.583Z,13.25
2023-04-24T06:13:53.049Z,13.20
2023-04-24T06:16:21.546Z,12.48
2023-04-24T06:18:49.895Z,13.48
2023-04-24T06:21:19.273Z,11.93
2023-04-24T06:23:48.433Z,12.27
2023-04-24T06:26:18.367Z,12.30
2023-04-24T06:28:46.784Z,11.27
2023-04-24T06:31:15.323Z,11.25
2023-04-24T06:33:43.706Z,10.95
2023-04-24T06:36:11.995Z,10.57
2023-04-24T06:38:40.543Z,9.65
2023-04-24T06:41:08.841Z,9.20
2023-04-24T06:43:41.190Z,7.90
2023-04-24T06:46:15.281Z,7.60
2023-04-24T06:48:43.794Z,7.55
2023-04-24T06:51:12.144Z,7.72
2023-04-24T06:53:40.495Z,7.47
2023-04-24T06:56:09.119Z,6.45
2023-04-24T06:58:38.803Z,6.57
2023-04-24T07:01:09.663Z,7.40
2023-04-24T07:03:38.201Z,6.63
2023-04-24T07:06:07.785Z,7.25
2023-04-24T07:08:36.883Z,7.35
2023-04-24T07:11:06.743Z,7.25
2023-04-24T07:13:36.472Z,7.22
2023-04-24T07:16:06.998Z,7.68
2023-04-24T07:18:35.830Z,7.85
2023-04-24T07:21:04.190Z,6.63
2023-04-24T07:23:32.820Z,6.15
2023-04-24T07:26:01.355Z,6.07
2023-04-24T07:28:32.073Z,5.30
2023-04-24T07:31:00.969Z,5.90
2023-04-24T07:33:30.778Z,5.85
2023-04-24T07:35:59.300Z,5.15
2023-04-24T07:38:27.697Z,4.47
2023-04-24T07:40:56.588Z,5.32
2023-04-24T07:43:25.012Z,5.40
2023-04-24T07:45:53.391Z,5.47
2023-04-24T07:48:23.108Z,4.82
2023-04-24T07:50:52.856Z,4.80
2023-04-24T07:53:21.196Z,4.75
2023-04-24T07:55:49.916Z,4.60
2023-04-24T07:58:18.256Z,4.38
2023-04-24T08:00:46.723Z,4.35
2023-04-24T08:03:15.131Z,4.47
2023-04-24T08:05:44.136Z,4.50
2023-04-24T08:08:14.064Z,4.05
2023-04-24T08:10:42.443Z,3.65
2023-04-24T08:13:12.476Z,4.03
2023-04-24T08:15:40.986Z,4.68
2023-04-24T08:18:10.060Z,3.50
2023-04-24T08:20:38.571Z,4.07
2023-04-24T08:23:06.924Z,2.95
2023-04-24T08:25:36.659Z,4.35
2023-04-24T08:28:05.900Z,3.75
2023-04-24T08:30:34.376Z,4.03
2023-04-24T08:33:03.277Z,3.85
2023-04-24T08:35:31.809Z,3.95
2023-04-24T08:38:00.239Z,3.38
2023-04-24T08:40:34.467Z,3.45
2023-04-24T08:43:05.899Z,2.80
2023-04-24T08:45:35.449Z,2.85
2023-04-24T08:48:11.434Z,2.88
2023-04-24T08:50:45.861Z,2.75
2023-04-24T08:53:14.142Z,3.40
2023-04-24T08:55:45.990Z,2.30
2023-04-24T08:58:16.590Z,3.13
2023-04-24T09:00:48.085Z,2.83
2023-04-24T09:03:18.261Z,2.78
2023-04-24T09:05:52.421Z,2.53
2023-04-24T09:08:22.159Z,2.40
2023-04-24T09:10:51.286Z,2.25
2023-04-24T09:13:21.964Z,3.85
2023-04-24T09:15:50.357Z,1.98
2023-04-24T09:18:19.369Z,2.17
2023-04-24T09:21:01.342Z,1.83
2023-04-24T09:23:31.337Z,1.80
2023-04-24T09:26:02.174Z,1.65
2023-04-24T09:28:35.537Z,1.60
2023-04-24T09:31:12.223Z,2.00
2023-04-24T09:33:40.657Z,1.75
2023-04-24T09:36:09.202Z,1.70
2023-04-24T09:38:39.248Z,1.10
2023-04-24T09:41:10.080Z,1.27
2023-04-24T09:43:39.752Z,1.35
2023-04-24T09:46:13.130Z,1.40
2023-04-24T09:48:41.437Z,1.40
2023-04-24T09:51:11.783Z,1.20
2023-04-24T09:53:41.089Z,1.40
2023-04-24T09:56:10.819Z,1.48
2023-04-24T09:58:40.925Z,1.35
2023-04-24T10:01:09.390Z,1.25
2023-04-24T10:03:38.168Z,1.20
2023-04-24T10:06:09.945Z,0.90
2023-04-24T10:08:39.633Z,0.93
2023-04-24T10:11:08.924Z,0.98
2023-04-24T10:13:39.716Z,0.82
2023-04-24T10:16:08.707Z,0.95
2023-04-24T10:18:37.670Z,1.27
2023-04-24T10:21:06.255Z,1.23
2023-04-24T10:23:35.173Z,1.10
2023-04-24T10:26:03.792Z,1.10
2023-04-24T10:28:34.273Z,1.08
2023-04-24T10:31:04.477Z,1.40
2023-04-24T10:33:33.570Z,1.52
2023-04-24T10:36:03.134Z,1.15
2023-04-24T10:38:32.802Z,1.45
2023-04-24T10:41:15.046Z,1.35
2023-04-24T10:43:43.541Z,1.30
2023-04-24T10:46:19.321Z,1.52
2023-04-24T10:48:55.915Z,1.45
2023-04-24T10:51:26.905Z,1.42
2023-04-24T10:53:55.273Z,1.30
2023-04-24T10:56:24.318Z,1.30
2023-04-24T10:58:55.386Z,1.30
2023-04-24T11:01:30.239Z,1.92
2023-04-24T11:04:01.184Z,1.90
2023-04-24T11:06:34.139Z,2.20
2023-04-24T11:09:07.661Z,1.70
2023-04-24T11:11:38.070Z,1.67
2023-04-24T11:14:09.163Z,2.13
2023-04-24T11:16:47.020Z,2.40
2023-04-24T11:19:25.863Z,2.60
2023-04-24T11:22:01.632Z,1.27
2023-04-24T11:24:33.915Z,1.52
2023-04-24T11:27:09.760Z,1.30
2023-04-24T11:29:43.834Z,1.70
2023-04-24T11:32:28.526Z,1.50
2023-04-24T11:34:59.059Z,1.50
2023-04-24T11:37:30.365Z,1.67
2023-04-24T11:40:01.545Z,1.67
2023-04-24T11:42:32.049Z,1.50
2023-04-24T11:45:01.412Z,1.67
2023-04-24T11:47:35.074Z,1.52
2023-04-24T11:50:05.100Z,1.80
2023-04-24T11:52:33.746Z,1.80
2023-04-24T11:55:02.547Z,1.77
2023-04-24T11:57:34.800Z,1.90
2023-04-24T12:00:04.614Z,1.50
2023-04-24T12:02:37.510Z,1.30
2023-04-24T12:05:09.728Z,1.73
2023-04-24T12:07:44.902Z,1.73
2023-04-24T12:10:13.666Z,1.70
2023-04-24T12:12:42.327Z,1.45
2023-04-24T12:15:13.480Z,1.90
2023-04-24T12:17:44.779Z,2.10
2023-04-24T12:20:15.127Z,2.05
2023-04-24T12:22:48.655Z,1.90
2023-04-24T12:25:18.732Z,2.30
2023-04-24T12:27:54.592Z,1.92
2023-04-24T12:30:23.885Z,2.10
2023-04-24T12:32:56.025Z,1.88
2023-04-24T12:35:26.962Z,1.77
2023-04-24T12:37:55.362Z,2.10
2023-04-24T12:40:24.477Z,2.08
2023-04-24T12:42:54.690Z,2.38
2023-04-24T12:45:24.893Z,2.08
2023-04-24T12:47:54.761Z,3.03
2023-04-24T12:50:23.026Z,2.08
2023-04-24T12:52:53.359Z,2.15
2023-04-24T12:55:21.632Z,2.40
2023-04-24T12:57:50.061Z,2.20
2023-04-24T13:00:20.308Z,2.00
2023-04-24T13:02:51.832Z,2.60
2023-04-24T13:05:25.365Z,2.20
2023-04-24T13:07:54.029Z,1.80
2023-04-24T13:10:22.543Z,1.95
2023-04-24T13:12:51.222Z,2.25
2023-04-24T13:15:19.716Z,2.80
2023-04-24T13:17:50.969Z,3.03
2023-04-24T13:20:21.421Z,2.60
2023-04-24T13:22:50.174Z,2.80
2023-04-24T13:25:19.176Z,2.70
2023-04-24T13:27:50.344Z,2.67
2023-04-24T13:30:19.114Z,2.95
2023-04-24T13:32:50.514Z,3.17
2023-04-24T13:35:18.949Z,2.90
2023-04-24T13:37:52.306Z,3.75
2023-04-24T13:40:20.807Z,3.13
2023-04-24T13:42:49.211Z,3.50
2023-04-24T13:45:24.595Z,3.17
2023-04-24T13:47:54.872Z,2.97
2023-04-24T13:50:23.768Z,3.20
2023-04-24T13:52:53.506Z,2.63
2023-04-24T13:55:21.917Z,3.40
2023-04-24T13:57:50.291Z,3.92
2023-04-24T14:00:20.357Z,4.40
2023-04-24T14:02:49.460Z,4.22
2023-04-24T14:05:18.048Z,4.95
2023-04-24T14:07:49.297Z,4.55
2023-04-24T14:10:19.278Z,4.68
2023-04-24T14:12:50.681Z,4.70
2023-04-24T14:15:19.212Z,4.43
2023-04-24T14:17:50.738Z,4.15
2023-04-24T14:20:19.162Z,3.88
2023-04-24T14:22:49.114Z,4.50
2023-04-24T14:25:18.860Z,5.03
2023-04-24T14:27:49.656Z,3.88
2023-04-24T14:30:18.162Z,3.30
2023-04-24T14:32:48.323Z,3.30
2023-04-24T14:35:17.197Z,3.25
2023-04-24T14:37:45.630Z,3.65
2023-04-24T14:40:29.879Z,3.78
2023-04-24T14:43:04.111Z,4.63
2023-04-24T14:45:32.526Z,4.28
2023-04-24T14:48:01.077Z,4.53
2023-04-24T14:50:29.790Z,5.15
2023-04-24T14:52:59.476Z,5.35
2023-04-24T14:55:28.138Z,4.82
2023-04-24T14:57:58.159Z,4.93
2023-04-24T15:00:27.907Z,5.75
2023-04-24T15:02:56.709Z,4.50
2023-04-24T15:05:26.370Z,6.13
2023-04-24T15:07:55.124Z,5.82
2023-04-24T15:10:24.913Z,4.63
2023-04-24T15:12:53.526Z,4.32
2023-04-24T15:15:22.065Z,3.85
2023-04-24T15:17:51.855Z,4.63
2023-04-24T15:20:20.313Z,4.25
2023-04-24T15:22:51.019Z,4.47
2023-04-24T15:25:19.533Z,5.18
2023-04-24T15:27:51.225Z,4.63
2023-04-24T15:30:19.853Z,3.42
2023-04-24T15:32:51.568Z,3.22
2023-04-24T15:35:20.080Z,4.60
2023-04-24T15:37:51.058Z,3.67
2023-04-24T15:40:19.430Z,3.60
2023-04-24T15:42:51.165Z,3.33
2023-04-24T15:45:19.672Z,3.90
2023-04-24T15:47:53.081Z,3.92
2023-04-24T15:50:22.691Z,4.28
2023-04-24T15:52:51.038Z,4.43
2023-04-24T15:55:19.655Z,4.32
2023-04-24T15:57:48.201Z,4.80
2023-04-24T16:00:18.362Z,4.15
2023-04-24T16:02:50.538Z,4.40
2023-04-24T16:05:22.820Z,4.57
2023-04-24T16:07:51.684Z,5.68
2023-04-24T16:10:20.339Z,4.85
2023-04-24T16:12:51.774Z,5.63
2023-04-24T16:15:20.462Z,5.75
2023-04-24T16:17:52.066Z,5.40
2023-04-24T16:20:22.467Z,5.88
2023-04-24T16:22:52.423Z,5.78
2023-04-24T16:25:21.237Z,6.05
2023-04-24T16:27:52.765Z,5.88
2023-04-24T16:30:21.407Z,5.20
2023-04-24T16:32:49.910Z,5.60
2023-04-24T16:35:18.527Z,5.95
2023-04-24T16:37:49.592Z,6.13
2023-04-24T16:40:18.072Z,6.07
2023-04-24T16:42:47.635Z,5.40
2023-04-24T16:45:16.037Z,6.07
2023-04-24T16:47:44.556Z,5.68
2023-04-24T16:50:13.549Z,5.47
2023-04-24T16:52:42.076Z,5.10
2023-04-24T16:55:12.228Z,5.25
2023-04-24T16:57:40.712Z,4.38
2023-04-24T17:00:11.229Z,4.70
2023-04-24T17:02:39.689Z,5.38
2023-04-24T17:05:09.620Z,5.03
2023-04-24T17:07:37.997Z,4.75
2023-04-24T17:10:09.092Z,4.65
2023-04-24T17:12:38.808Z,4.70
2023-04-24T17:15:08.908Z,4.20
2023-04-24T17:17:37.296Z,4.70
2023-04-24T17:20:18.700Z,4.22
2023-04-24T17:22:50.193Z,4.43
2023-04-24T17:25:18.915Z,4.25
2023-04-24T17:27:49.040Z,4.55
2023-04-24T17:30:18.092Z,4.82
2023-04-24T17:32:46.848Z,5.22
2023-04-24T17:35:15.369Z,4.57
2023-04-24T17:37:43.775Z,4.43
2023-04-24T17:40:13.629Z,4.93
2023-04-24T17:42:42.453Z,4.85
2023-04-24T17:45:13.677Z,4.82
2023-04-24T17:47:42.405Z,4.28
2023-04-24T17:50:11.276Z,5.18
2023-04-24T17:52:39.628Z,4.57
2023-04-24T17:55:09.154Z,5.35
2023-04-24T17:57:37.556Z,4.45
2023-04-24T18:00:08.348Z,4.93
2023-04-24T18:02:38.292Z,4.13
2023-04-24T18:05:07.379Z,4.65
2023-04-24T18:07:39.320Z,4.95
2023-04-24T18:10:09.210Z,4.53
2023-04-24T18:12:37.660Z,4.25
2023-04-24T18:15:14.435Z,3.67
2023-04-24T18:17:47.199Z,4.93
2023-04-24T18:20:17.797Z,5.00
2023-04-24T18:22:49.095Z,4.72
2023-04-24T18:25:17.833Z,4.60
2023-04-24T18:27:48.847Z,4.75
2023-04-24T18:30:17.568Z,4.60
2023-04-24T18:32:47.656Z,4.75
2023-04-24T18:35:16.248Z,4.90
2023-04-24T18:37:45.537Z,4.28
2023-04-24T18:40:14.858Z,4.38
2023-04-24T18:42:43.633Z,4.53
2023-04-24T18:45:15.070Z,7.70
2023-04-24T18:47:44.201Z,6.60
2023-04-24T18:50:14.810Z,4.05
2023-04-24T18:52:43.231Z,4.20
2023-04-24T18:55:11.880Z,4.15
2023-04-24T18:57:40.259Z,3.83
2023-04-24T19:00:10.381Z,3.80
2023-04-24T19:02:39.036Z,4.05
2023-04-24T19:05:08.197Z,4.18
2023-04-24T19:07:37.940Z,3.95
2023-04-24T19:10:07.998Z,3.97
2023-04-24T19:12:36.454Z,3.45
2023-04-24T19:15:06.044Z,3.72
2023-04-24T19:17:34.423Z,4.15
2023-04-24T19:20:03.779Z,3.55
2023-04-24T19:22:32.084Z,3.80
2023-04-24T19:25:02.072Z,3.53
2023-04-24T19:27:30.623Z,3.55
2023-04-24T19:29:59.048Z,3.10
2023-04-24T19:32:27.711Z,3.25
2023-04-24T19:34:56.247Z,3.25
2023-04-24T19:37:24.693Z,3.05
2023-04-24T19:39:53.148Z,2.92
2023-04-24T19:42:36.014Z,3.20
2023-04-24T19:45:12.793Z,3.25
2023-04-24T19:47:41.311Z,2.78
2023-04-24T19:50:10.421Z,2.67
2023-04-24T19:52:38.793Z,3.15
2023-04-24T19:55:08.644Z,2.65
2023-04-24T19:57:38.486Z,2.80
2023-04-24T20:00:08.792Z,3.20
2023-04-24T20:02:37.369Z,2.63
2023-04-24T20:05:07.412Z,2.85
2023-04-24T20:07:36.409Z,3.17
2023-04-24T20:10:05.515Z,3.22
2023-04-24T20:12:34.089Z,3.05
2023-04-24T20:15:07.606Z,3.70
2023-04-24T20:17:47.296Z,3.65
2023-04-24T20:20:25.847Z,3.90
2023-04-24T20:22:54.780Z,3.15
2023-04-24T20:25:26.308Z,3.60
2023-04-24T20:27:55.649Z,3.13
2023-04-24T20:30:26.043Z,3.50
2023-04-24T20:32:59.845Z,3.15
2023-04-24T20:35:28.668Z,3.38
2023-04-24T20:37:57.343Z,3.25
2023-04-24T20:40:25.959Z,3.08
2023-04-24T20:42:54.524Z,3.13
2023-04-24T20:45:24.359Z,4.00
2023-04-24T20:47:52.786Z,3.17
2023-04-24T20:50:21.260Z,3.72
2023-04-24T20:52:55.693Z,3.67
2023-04-24T20:55:24.196Z,3.25
2023-04-24T20:57:52.570Z,4.38
2023-04-24T21:00:21.086Z,3.65
2023-04-24T21:02:53.908Z,3.42
2023-04-24T21:05:22.842Z,3.00
2023-04-24T21:07:51.966Z,2.50
2023-04-24T21:10:21.026Z,2.58
2023-04-24T21:12:49.828Z,2.53
2023-04-24T21:15:18.469Z,2.47
2023-04-24T21:17:47.544Z,2.42
2023-04-24T21:20:17.360Z,1.80
2023-04-24T21:22:45.806Z,2.45
2023-04-24T21:25:14.160Z,2.22
2023-04-24T21:27:43.469Z,2.30
2023-04-24T21:30:13.641Z,2.08
2023-04-24T21:32:43.335Z,2.65
2023-04-24T21:35:12.075Z,2.65
2023-04-24T21:37:41.873Z,2.65
2023-04-24T21:40:12.414Z,2.53
2023-04-24T21:42:40.961Z,2.15
2023-04-24T21:45:11.388Z,2.88
2023-04-24T21:47:40.083Z,2.70
2023-04-24T21:50:10.536Z,2.42
2023-04-24T21:52:39.136Z,2.45
2023-04-24T21:55:10.283Z,2.72
2023-04-24T21:57:38.690Z,2.47
2023-04-24T22:00:11.391Z,2.65
2023-04-24T22:02:39.971Z,2.30
2023-04-24T22:05:15.430Z,2.45
2023-04-24T22:07:47.138Z,3.28
2023-04-24T22:10:18.916Z,2.10
2023-04-24T22:12:50.084Z,2.45
2023-04-24T22:15:18.520Z,2.50
2023-04-24T22:17:47.152Z,2.05
2023-04-24T22:20:16.967Z,2.33
2023-04-24T22:22:45.590Z,2.75
2023-04-24T22:25:14.044Z,3.83
2023-04-24T22:27:43.873Z,2.80
2023-04-24T22:30:13.324Z,2.45
2023-04-24T22:32:42.373Z,2.28
2023-04-24T22:35:11.492Z,2.25
2023-04-24T22:37:39.819Z,2.70
2023-04-24T22:40:10.461Z,3.15
2023-04-24T22:42:38.968Z,2.60
2023-04-24T22:45:11.681Z,2.95
2023-04-24T22:47:40.652Z,3.03
2023-04-24T22:50:10.759Z,3.08
2023-04-24T22:52:41.127Z,2.80
2023-04-24T22:55:11.235Z,2.53
2023-04-24T22:57:39.857Z,3.25
2023-04-24T23:00:13.802Z,2.45
2023-04-24T23:02:43.283Z,1.92
2023-04-24T23:05:12.356Z,2.83
2023-04-24T23:07:40.849Z,2.95
2023-04-24T23:10:10.381Z,2.78
2023-04-24T23:12:39.218Z,2.50
2023-04-24T23:15:11.409Z,3.30
2023-04-24T23:17:39.995Z,2.95
2023-04-24T23:20:14.288Z,2.88
2023-04-24T23:22:43.196Z,3.13
2023-04-24T23:25:11.928Z,2.55
2023-04-24T23:27:43.553Z,3.45
2023-04-24T23:30:13.930Z,2.53
2023-04-24T23:32:44.175Z,2.92
2023-04-24T23:35:12.782Z,3.50
2023-04-24T23:37:41.180Z,3.22
2023-04-24T23:40:11.358Z,3.33
2023-04-24T23:42:39.694Z,2.97
2023-04-24T23:45:10.605Z,3.05
2023-04-24T23:47:41.131Z,3.38
2023-04-24T23:50:10.816Z,3.25
2023-04-24T23:52:39.276Z,2.88
2023-04-24T23:55:09.413Z,3.20
2023-04-24T23:57:37.841Z,3.40
